sensor_id;sensor_type;location;lat;lon;timestamp;P1;durP1;ratioP1;P2;durP2;ratioP2
22113;SDS011;11223;49.968;9.062;2022-07-29T00:00:20;5.43;;;3.40;;
22113;SDS011;11223;49.968;9.062;2022-07-29T00:02:46;4.83;;;3.03;;
22113;SDS011;11223;49.968;9.062;2022-07-29T00:05:11;3.13;;;2.83;;
22113;SDS011;11223;49.968;9.062;2022-07-29T00:07:38;3.78;;;2.67;;
22113;SDS011;11223;49.968;9.062;2022-07-29T00:10:05;4.03;;;3.53;;
22113;SDS011;11223;49.968;9.062;2022-07-29T00:12:31;4.38;;;2.90;;
22113;SDS011;11223;49.968;9.062;2022-07-29T00:14:57;2.40;;;2.10;;
22113;SDS011;11223;49.968;9.062;2022-07-29T00:17:23;2.93;;;2.73;;
22113;SDS011;11223;49.968;9.062;2022-07-29T00:19:49;4.57;;;3.25;;
22113;SDS011;11223;49.968;9.062;2022-07-29T00:22:14;6.13;;;2.33;;
22113;SDS011;11223;49.968;9.062;2022-07-29T00:24:40;3.80;;;2.30;;
22113;SDS011;11223;49.968;9.062;2022-07-29T00:27:06;2.97;;;2.30;;
22113;SDS011;11223;49.968;9.062;2022-07-29T00:29:31;4.10;;;2.73;;
22113;SDS011;11223;49.968;9.062;2022-07-29T00:31:57;2.90;;;2.57;;
22113;SDS011;11223;49.968;9.062;2022-07-29T00:34:22;3.10;;;2.80;;
22113;SDS011;11223;49.968;9.062;2022-07-29T00:37:06;3.03;;;2.40;;
22113;SDS011;11223;49.968;9.062;2022-07-29T00:39:32;4.70;;;2.60;;
22113;SDS011;11223;49.968;9.062;2022-07-29T00:41:58;2.63;;;2.40;;
22113;SDS011;11223;49.968;9.062;2022-07-29T00:44:23;2.77;;;2.57;;
22113;SDS011;11223;49.968;9.062;2022-07-29T00:46:49;3.30;;;3.00;;
22113;SDS011;11223;49.968;9.062;2022-07-29T00:49:14;4.03;;;3.23;;
22113;SDS011;11223;49.968;9.062;2022-07-29T00:51:40;4.33;;;3.50;;
22113;SDS011;11223;49.968;9.062;2022-07-29T00:54:06;2.97;;;2.67;;
22113;SDS011;11223;49.968;9.062;2022-07-29T00:56:33;3.10;;;2.65;;
22113;SDS011;11223;49.968;9.062;2022-07-29T00:58:58;7.55;;;3.30;;
22113;SDS011;11223;49.968;9.062;2022-07-29T01:01:25;3.05;;;2.85;;
22113;SDS011;11223;49.968;9.062;2022-07-29T01:03:51;6.35;;;3.30;;
22113;SDS011;11223;49.968;9.062;2022-07-29T01:06:17;5.15;;;3.47;;
22113;SDS011;11223;49.968;9.062;2022-07-29T01:08:44;5.80;;;2.97;;
22113;SDS011;11223;49.968;9.062;2022-07-29T01:11:12;4.80;;;3.22;;
22113;SDS011;11223;49.968;9.062;2022-07-29T01:13:39;3.55;;;2.95;;
22113;SDS011;11223;49.968;9.062;2022-07-29T01:16:25;3.42;;;2.85;;
22113;SDS011;11223;49.968;9.062;2022-07-29T01:18:57;6.60;;;3.17;;
22113;SDS011;11223;49.968;9.062;2022-07-29T01:27:28;5.32;;;3.17;;
22113;SDS011;11223;49.968;9.062;2022-07-29T01:30:06;3.67;;;3.15;;
22113;SDS011;11223;49.968;9.062;2022-07-29T01:32:33;3.95;;;3.38;;
22113;SDS011;11223;49.968;9.062;2022-07-29T01:35:05;5.40;;;3.00;;
22113;SDS011;11223;49.968;9.062;2022-07-29T01:37:46;4.35;;;3.67;;
22113;SDS011;11223;49.968;9.062;2022-07-29T01:40:22;3.58;;;3.10;;
22113;SDS011;11223;49.968;9.062;2022-07-29T01:42:56;3.70;;;3.40;;
22113;SDS011;11223;49.968;9.062;2022-07-29T01:45:25;4.72;;;3.38;;
22113;SDS011;11223;49.968;9.062;2022-07-29T01:47:56;6.00;;;3.67;;
22113;SDS011;11223;49.968;9.062;2022-07-29T01:50:23;4.70;;;3.17;;
22113;SDS011;11223;49.968;9.062;2022-07-29T01:53:02;5.03;;;2.97;;
22113;SDS011;11223;49.968;9.062;2022-07-29T01:55:35;5.30;;;3.20;;
22113;SDS011;11223;49.968;9.062;2022-07-29T01:58:04;3.75;;;3.45;;
22113;SDS011;11223;49.968;9.062;2022-07-29T02:00:31;3.30;;;3.00;;
22113;SDS011;11223;49.968;9.062;2022-07-29T02:03:00;4.55;;;3.45;;
22113;SDS011;11223;49.968;9.062;2022-07-29T02:05:28;6.10;;;3.38;;
22113;SDS011;11223;49.968;9.062;2022-07-29T02:07:55;4.07;;;3.78;;
22113;SDS011;11223;49.968;9.062;2022-07-29T02:10:24;3.92;;;3.47;;
22113;SDS011;11223;49.968;9.062;2022-07-29T02:12:54;4.35;;;3.00;;
22113;SDS011;11223;49.968;9.062;2022-07-29T02:15:21;4.05;;;3.65;;
22113;SDS011;11223;49.968;9.062;2022-07-29T02:17:56;3.78;;;3.40;;
22113;SDS011;11223;49.968;9.062;2022-07-29T02:20:25;5.95;;;3.60;;
22113;SDS011;11223;49.968;9.062;2022-07-29T02:22:52;4.60;;;3.35;;
22113;SDS011;11223;49.968;9.062;2022-07-29T02:25:19;6.50;;;3.53;;
22113;SDS011;11223;49.968;9.062;2022-07-29T02:27:47;3.92;;;3.63;;
22113;SDS011;11223;49.968;9.062;2022-07-29T02:30:15;5.50;;;3.95;;
22113;SDS011;11223;49.968;9.062;2022-07-29T02:32:42;5.53;;;3.70;;
22113;SDS011;11223;49.968;9.062;2022-07-29T02:35:10;6.30;;;3.67;;
22113;SDS011;11223;49.968;9.062;2022-07-29T02:37:39;3.38;;;3.08;;
22113;SDS011;11223;49.968;9.062;2022-07-29T02:40:08;3.58;;;3.10;;
22113;SDS011;11223;49.968;9.062;2022-07-29T02:42:36;4.50;;;4.10;;
22113;SDS011;11223;49.968;9.062;2022-07-29T02:45:04;3.70;;;3.40;;
22113;SDS011;11223;49.968;9.062;2022-07-29T02:47:32;6.78;;;3.85;;
22113;SDS011;11223;49.968;9.062;2022-07-29T02:50:15;6.60;;;3.60;;
22113;SDS011;11223;49.968;9.062;2022-07-29T02:52:47;3.63;;;3.33;;
22113;SDS011;11223;49.968;9.062;2022-07-29T02:55:43;4.05;;;3.75;;
22113;SDS011;11223;49.968;9.062;2022-07-29T03:00:51;6.03;;;3.13;;
22113;SDS011;11223;49.968;9.062;2022-07-29T03:03:18;4.50;;;3.60;;
22113;SDS011;11223;49.968;9.062;2022-07-29T03:05:45;4.40;;;3.40;;
22113;SDS011;11223;49.968;9.062;2022-07-29T03:08:11;5.27;;;3.40;;
22113;SDS011;11223;49.968;9.062;2022-07-29T03:10:42;3.97;;;3.55;;
22113;SDS011;11223;49.968;9.062;2022-07-29T03:13:10;4.10;;;3.80;;
22113;SDS011;11223;49.968;9.062;2022-07-29T03:15:38;3.95;;;3.47;;
22113;SDS011;11223;49.968;9.062;2022-07-29T03:18:04;4.57;;;3.53;;
22113;SDS011;11223;49.968;9.062;2022-07-29T03:20:31;5.15;;;3.72;;
22113;SDS011;11223;49.968;9.062;2022-07-29T03:22:57;6.67;;;4.10;;
22113;SDS011;11223;49.968;9.062;2022-07-29T03:25:22;4.73;;;3.70;;
22113;SDS011;11223;49.968;9.062;2022-07-29T03:27:48;5.43;;;4.00;;
22113;SDS011;11223;49.968;9.062;2022-07-29T03:30:14;4.00;;;3.70;;
22113;SDS011;11223;49.968;9.062;2022-07-29T03:32:41;4.10;;;3.30;;
22113;SDS011;11223;49.968;9.062;2022-07-29T03:35:07;3.60;;;3.17;;
22113;SDS011;11223;49.968;9.062;2022-07-29T03:37:33;5.53;;;3.70;;
22113;SDS011;11223;49.968;9.062;2022-07-29T03:39:58;3.80;;;3.50;;
22113;SDS011;11223;49.968;9.062;2022-07-29T03:42:26;4.15;;;3.80;;
22113;SDS011;11223;49.968;9.062;2022-07-29T03:44:55;4.63;;;4.00;;
22113;SDS011;11223;49.968;9.062;2022-07-29T03:47:24;4.20;;;3.78;;
22113;SDS011;11223;49.968;9.062;2022-07-29T03:49:52;4.20;;;3.65;;
22113;SDS011;11223;49.968;9.062;2022-07-29T03:52:23;4.50;;;3.65;;
22113;SDS011;11223;49.968;9.062;2022-07-29T03:54:48;5.27;;;3.87;;
22113;SDS011;11223;49.968;9.062;2022-07-29T03:57:14;5.13;;;4.13;;
22113;SDS011;11223;49.968;9.062;2022-07-29T03:59:43;4.53;;;3.90;;
22113;SDS011;11223;49.968;9.062;2022-07-29T04:02:10;4.97;;;4.43;;
22113;SDS011;11223;49.968;9.062;2022-07-29T04:04:37;5.15;;;4.20;;
22113;SDS011;11223;49.968;9.062;2022-07-29T04:07:03;6.63;;;4.80;;
22113;SDS011;11223;49.968;9.062;2022-07-29T04:09:29;6.43;;;4.25;;
22113;SDS011;11223;49.968;9.062;2022-07-29T04:11:55;6.03;;;4.78;;
22113;SDS011;11223;49.968;9.062;2022-07-29T04:14:20;5.13;;;4.23;;
22113;SDS011;11223;49.968;9.062;2022-07-29T04:16:46;6.00;;;4.10;;
22113;SDS011;11223;49.968;9.062;2022-07-29T04:19:12;4.17;;;3.70;;
22113;SDS011;11223;49.968;9.062;2022-07-29T04:21:38;4.37;;;3.97;;
22113;SDS011;11223;49.968;9.062;2022-07-29T04:24:05;5.18;;;4.65;;
22113;SDS011;11223;49.968;9.062;2022-07-29T04:26:31;4.78;;;4.30;;
22113;SDS011;11223;49.968;9.062;2022-07-29T04:28:57;4.75;;;4.25;;
22113;SDS011;11223;49.968;9.062;2022-07-29T04:31:23;4.00;;;3.70;;
22113;SDS011;11223;49.968;9.062;2022-07-29T04:33:49;4.77;;;4.37;;
22113;SDS011;11223;49.968;9.062;2022-07-29T04:36:14;5.23;;;3.73;;
22113;SDS011;11223;49.968;9.062;2022-07-29T04:38:40;4.53;;;3.63;;
22113;SDS011;11223;49.968;9.062;2022-07-29T04:41:05;4.97;;;4.30;;
22113;SDS011;11223;49.968;9.062;2022-07-29T04:43:32;4.97;;;4.63;;
22113;SDS011;11223;49.968;9.062;2022-07-29T04:45:58;6.28;;;4.28;;
22113;SDS011;11223;49.968;9.062;2022-07-29T04:48:24;5.07;;;4.40;;
22113;SDS011;11223;49.968;9.062;2022-07-29T04:50:50;4.93;;;4.43;;
22113;SDS011;11223;49.968;9.062;2022-07-29T04:53:15;4.40;;;3.80;;
22113;SDS011;11223;49.968;9.062;2022-07-29T04:55:41;4.20;;;3.90;;
22113;SDS011;11223;49.968;9.062;2022-07-29T04:58:07;4.50;;;4.20;;
22113;SDS011;11223;49.968;9.062;2022-07-29T05:00:33;6.38;;;4.38;;
22113;SDS011;11223;49.968;9.062;2022-07-29T05:02:59;5.30;;;4.80;;
22113;SDS011;11223;49.968;9.062;2022-07-29T05:05:25;6.00;;;4.40;;
22113;SDS011;11223;49.968;9.062;2022-07-29T05:07:50;4.47;;;4.10;;
22113;SDS011;11223;49.968;9.062;2022-07-29T05:10:16;6.00;;;5.17;;
22113;SDS011;11223;49.968;9.062;2022-07-29T05:12:41;5.73;;;4.10;;
22113;SDS011;11223;49.968;9.062;2022-07-29T05:15:07;7.10;;;4.70;;
22113;SDS011;11223;49.968;9.062;2022-07-29T05:17:33;4.78;;;4.32;;
22113;SDS011;11223;49.968;9.062;2022-07-29T05:19:59;5.07;;;4.47;;
22113;SDS011;11223;49.968;9.062;2022-07-29T05:22:24;5.40;;;5.00;;
22113;SDS011;11223;49.968;9.062;2022-07-29T05:24:50;4.87;;;4.40;;
22113;SDS011;11223;49.968;9.062;2022-07-29T05:27:15;5.17;;;4.20;;
22113;SDS011;11223;49.968;9.062;2022-07-29T05:29:41;6.17;;;4.37;;
22113;SDS011;11223;49.968;9.062;2022-07-29T05:32:07;5.07;;;4.57;;
22113;SDS011;11223;49.968;9.062;2022-07-29T05:34:33;4.90;;;4.47;;
22113;SDS011;11223;49.968;9.062;2022-07-29T05:36:58;4.60;;;4.13;;
22113;SDS011;11223;49.968;9.062;2022-07-29T05:39:24;5.40;;;4.80;;
22113;SDS011;11223;49.968;9.062;2022-07-29T05:41:49;5.00;;;4.50;;
22113;SDS011;11223;49.968;9.062;2022-07-29T05:44:17;6.65;;;4.85;;
22113;SDS011;11223;49.968;9.062;2022-07-29T05:46:42;4.80;;;4.40;;
22113;SDS011;11223;49.968;9.062;2022-07-29T05:49:08;9.17;;;4.47;;
22113;SDS011;11223;49.968;9.062;2022-07-29T05:51:34;6.10;;;4.33;;
22113;SDS011;11223;49.968;9.062;2022-07-29T05:54:00;5.68;;;4.45;;
22113;SDS011;11223;49.968;9.062;2022-07-29T05:56:25;6.50;;;4.50;;
22113;SDS011;11223;49.968;9.062;2022-07-29T05:58:51;5.87;;;4.50;;
22113;SDS011;11223;49.968;9.062;2022-07-29T06:01:17;6.80;;;4.70;;
22113;SDS011;11223;49.968;9.062;2022-07-29T06:03:42;4.77;;;4.37;;
22113;SDS011;11223;49.968;9.062;2022-07-29T06:06:08;5.80;;;4.00;;
22113;SDS011;11223;49.968;9.062;2022-07-29T06:08:34;5.17;;;4.73;;
22113;SDS011;11223;49.968;9.062;2022-07-29T06:11:01;6.40;;;4.25;;
22113;SDS011;11223;49.968;9.062;2022-07-29T06:13:27;6.70;;;4.50;;
22113;SDS011;11223;49.968;9.062;2022-07-29T06:15:53;4.53;;;3.87;;
22113;SDS011;11223;49.968;9.062;2022-07-29T06:18:18;7.73;;;4.73;;
22113;SDS011;11223;49.968;9.062;2022-07-29T06:20:45;6.20;;;4.03;;
22113;SDS011;11223;49.968;9.062;2022-07-29T06:23:11;8.83;;;4.17;;
22113;SDS011;11223;49.968;9.062;2022-07-29T06:25:37;6.70;;;3.90;;
22113;SDS011;11223;49.968;9.062;2022-07-29T06:28:04;5.90;;;4.50;;
22113;SDS011;11223;49.968;9.062;2022-07-29T06:30:30;5.43;;;4.23;;
22113;SDS011;11223;49.968;9.062;2022-07-29T06:32:55;5.90;;;4.20;;
22113;SDS011;11223;49.968;9.062;2022-07-29T06:35:21;5.57;;;4.37;;
22113;SDS011;11223;49.968;9.062;2022-07-29T06:37:46;6.93;;;3.93;;
22113;SDS011;11223;49.968;9.062;2022-07-29T06:40:12;11.70;;;4.63;;
22113;SDS011;11223;49.968;9.062;2022-07-29T06:42:56;7.97;;;4.95;;
22113;SDS011;11223;49.968;9.062;2022-07-29T06:45:22;7.63;;;4.40;;
22113;SDS011;11223;49.968;9.062;2022-07-29T06:47:48;7.15;;;4.10;;
22113;SDS011;11223;49.968;9.062;2022-07-29T06:50:14;4.67;;;4.00;;
22113;SDS011;11223;49.968;9.062;2022-07-29T06:52:40;6.40;;;4.13;;
22113;SDS011;11223;49.968;9.062;2022-07-29T06:55:06;6.00;;;4.40;;
22113;SDS011;11223;49.968;9.062;2022-07-29T06:57:32;5.38;;;3.95;;
22113;SDS011;11223;49.968;9.062;2022-07-29T06:59:58;8.85;;;4.25;;
22113;SDS011;11223;49.968;9.062;2022-07-29T07:02:24;9.03;;;4.23;;
22113;SDS011;11223;49.968;9.062;2022-07-29T07:04:50;5.00;;;3.30;;
22113;SDS011;11223;49.968;9.062;2022-07-29T07:07:16;4.25;;;3.85;;
22113;SDS011;11223;49.968;9.062;2022-07-29T07:09:42;6.73;;;3.80;;
22113;SDS011;11223;49.968;9.062;2022-07-29T07:12:08;5.00;;;3.50;;
22113;SDS011;11223;49.968;9.062;2022-07-29T07:14:33;4.03;;;3.63;;
22113;SDS011;11223;49.968;9.062;2022-07-29T07:16:59;5.00;;;3.30;;
22113;SDS011;11223;49.968;9.062;2022-07-29T07:19:28;6.35;;;4.15;;
22113;SDS011;11223;49.968;9.062;2022-07-29T07:21:54;5.20;;;3.97;;
22113;SDS011;11223;49.968;9.062;2022-07-29T07:24:20;4.60;;;4.20;;
22113;SDS011;11223;49.968;9.062;2022-07-29T07:26:45;4.50;;;4.07;;
22113;SDS011;11223;49.968;9.062;2022-07-29T07:29:11;5.70;;;3.87;;
22113;SDS011;11223;49.968;9.062;2022-07-29T07:31:37;4.83;;;3.90;;
22113;SDS011;11223;49.968;9.062;2022-07-29T07:34:03;5.95;;;3.90;;
22113;SDS011;11223;49.968;9.062;2022-07-29T07:36:28;5.33;;;4.03;;
22113;SDS011;11223;49.968;9.062;2022-07-29T07:38:54;7.57;;;4.23;;
22113;SDS011;11223;49.968;9.062;2022-07-29T07:41:20;4.80;;;3.55;;
22113;SDS011;11223;49.968;9.062;2022-07-29T07:43:46;9.05;;;4.25;;
22113;SDS011;11223;49.968;9.062;2022-07-29T07:46:12;7.70;;;4.00;;
22113;SDS011;11223;49.968;9.062;2022-07-29T07:48:37;4.20;;;3.27;;
22113;SDS011;11223;49.968;9.062;2022-07-29T07:51:03;4.93;;;4.03;;
22113;SDS011;11223;49.968;9.062;2022-07-29T07:53:29;4.90;;;3.60;;
22113;SDS011;11223;49.968;9.062;2022-07-29T07:55:55;8.63;;;3.83;;
22113;SDS011;11223;49.968;9.062;2022-07-29T07:58:20;7.37;;;3.30;;
22113;SDS011;11223;49.968;9.062;2022-07-29T08:00:46;5.63;;;4.20;;
22113;SDS011;11223;49.968;9.062;2022-07-29T08:03:12;5.60;;;4.10;;
22113;SDS011;11223;49.968;9.062;2022-07-29T08:05:38;4.03;;;3.63;;
22113;SDS011;11223;49.968;9.062;2022-07-29T08:08:05;3.78;;;3.47;;
22113;SDS011;11223;49.968;9.062;2022-07-29T08:10:31;5.20;;;4.07;;
22113;SDS011;11223;49.968;9.062;2022-07-29T08:13:16;4.25;;;3.38;;
22113;SDS011;11223;49.968;9.062;2022-07-29T08:15:42;5.33;;;3.70;;
22113;SDS011;11223;49.968;9.062;2022-07-29T08:18:09;3.92;;;3.58;;
22113;SDS011;11223;49.968;9.062;2022-07-29T08:20:35;3.53;;;3.23;;
22113;SDS011;11223;49.968;9.062;2022-07-29T08:23:04;6.82;;;3.88;;
22113;SDS011;11223;49.968;9.062;2022-07-29T08:25:36;4.22;;;3.03;;
22113;SDS011;11223;49.968;9.062;2022-07-29T08:28:04;3.50;;;3.20;;
22113;SDS011;11223;49.968;9.062;2022-07-29T08:30:30;4.07;;;3.38;;
22113;SDS011;11223;49.968;9.062;2022-07-29T08:32:57;4.35;;;3.53;;
22113;SDS011;11223;49.968;9.062;2022-07-29T08:35:23;6.35;;;3.50;;
22113;SDS011;11223;49.968;9.062;2022-07-29T08:37:49;9.48;;;4.00;;
22113;SDS011;11223;49.968;9.062;2022-07-29T08:40:16;5.15;;;3.78;;
22113;SDS011;11223;49.968;9.062;2022-07-29T08:42:41;10.73;;;4.03;;
22113;SDS011;11223;49.968;9.062;2022-07-29T08:45:07;4.97;;;3.17;;
22113;SDS011;11223;49.968;9.062;2022-07-29T08:47:33;3.60;;;3.20;;
22113;SDS011;11223;49.968;9.062;2022-07-29T08:50:03;6.17;;;3.80;;
22113;SDS011;11223;49.968;9.062;2022-07-29T08:52:29;5.53;;;3.73;;
22113;SDS011;11223;49.968;9.062;2022-07-29T08:54:59;4.33;;;3.40;;
22113;SDS011;11223;49.968;9.062;2022-07-29T08:57:25;6.57;;;3.73;;
22113;SDS011;11223;49.968;9.062;2022-07-29T08:59:52;3.90;;;3.50;;
22113;SDS011;11223;49.968;9.062;2022-07-29T09:02:19;4.93;;;3.37;;
22113;SDS011;11223;49.968;9.062;2022-07-29T09:04:46;3.97;;;3.57;;
22113;SDS011;11223;49.968;9.062;2022-07-29T09:07:14;6.20;;;3.27;;
22113;SDS011;11223;49.968;9.062;2022-07-29T09:09:41;5.90;;;3.27;;
22113;SDS011;11223;49.968;9.062;2022-07-29T09:12:08;4.00;;;3.53;;
22113;SDS011;11223;49.968;9.062;2022-07-29T09:14:37;4.60;;;3.60;;
22113;SDS011;11223;49.968;9.062;2022-07-29T09:17:04;6.33;;;2.80;;
22113;SDS011;11223;49.968;9.062;2022-07-29T09:19:31;3.73;;;3.40;;
22113;SDS011;11223;49.968;9.062;2022-07-29T09:22:04;5.40;;;4.00;;
22113;SDS011;11223;49.968;9.062;2022-07-29T09:27:10;5.10;;;3.50;;
22113;SDS011;11223;49.968;9.062;2022-07-29T09:29:51;5.67;;;3.23;;
22113;SDS011;11223;49.968;9.062;2022-07-29T09:32:21;4.47;;;3.90;;
22113;SDS011;11223;49.968;9.062;2022-07-29T09:34:47;3.53;;;3.17;;
22113;SDS011;11223;49.968;9.062;2022-07-29T09:37:15;3.40;;;3.00;;
22113;SDS011;11223;49.968;9.062;2022-07-29T09:39:51;6.87;;;3.30;;
22113;SDS011;11223;49.968;9.062;2022-07-29T09:42:17;5.13;;;3.50;;
22113;SDS011;11223;49.968;9.062;2022-07-29T09:44:53;4.20;;;3.90;;
22113;SDS011;11223;49.968;9.062;2022-07-29T09:47:18;5.60;;;3.57;;
22113;SDS011;11223;49.968;9.062;2022-07-29T09:49:56;3.40;;;2.90;;
22113;SDS011;11223;49.968;9.062;2022-07-29T09:52:24;3.50;;;3.17;;
22113;SDS011;11223;49.968;9.062;2022-07-29T09:54:50;3.00;;;2.70;;
22113;SDS011;11223;49.968;9.062;2022-07-29T10:00:03;6.40;;;3.43;;
22113;SDS011;11223;49.968;9.062;2022-07-29T10:02:34;3.87;;;3.57;;
22113;SDS011;11223;49.968;9.062;2022-07-29T10:05:02;4.87;;;3.43;;
22113;SDS011;11223;49.968;9.062;2022-07-29T10:07:46;3.13;;;2.90;;
22113;SDS011;11223;49.968;9.062;2022-07-29T10:10:32;3.57;;;3.27;;
22113;SDS011;11223;49.968;9.062;2022-07-29T10:13:01;3.23;;;2.93;;
22113;SDS011;11223;49.968;9.062;2022-07-29T10:15:32;3.57;;;3.27;;
22113;SDS011;11223;49.968;9.062;2022-07-29T10:18:05;3.33;;;3.10;;
22113;SDS011;11223;49.968;9.062;2022-07-29T10:20:33;3.37;;;3.07;;
22113;SDS011;11223;49.968;9.062;2022-07-29T10:22:59;5.00;;;3.20;;
22113;SDS011;11223;49.968;9.062;2022-07-29T10:25:25;3.63;;;3.33;;
22113;SDS011;11223;49.968;9.062;2022-07-29T10:27:51;3.93;;;3.03;;
22113;SDS011;11223;49.968;9.062;2022-07-29T10:30:18;3.40;;;3.10;;
22113;SDS011;11223;49.968;9.062;2022-07-29T10:38:34;4.40;;;3.60;;
22113;SDS011;11223;49.968;9.062;2022-07-29T10:41:56;5.43;;;3.40;;
22113;SDS011;11223;49.968;9.062;2022-07-29T10:44:30;3.60;;;3.20;;
22113;SDS011;11223;49.968;9.062;2022-07-29T10:46:58;4.00;;;3.60;;
22113;SDS011;11223;49.968;9.062;2022-07-29T10:49:24;4.30;;;3.30;;
22113;SDS011;11223;49.968;9.062;2022-07-29T10:59:38;3.60;;;3.30;;
22113;SDS011;11223;49.968;9.062;2022-07-29T11:02:40;3.93;;;3.53;;
22113;SDS011;11223;49.968;9.062;2022-07-29T11:07:33;6.03;;;3.43;;
22113;SDS011;11223;49.968;9.062;2022-07-29T11:15:07;3.47;;;3.17;;
22113;SDS011;11223;49.968;9.062;2022-07-29T11:20:40;3.50;;;3.20;;
22113;SDS011;11223;49.968;9.062;2022-07-29T11:23:21;4.23;;;3.00;;
22113;SDS011;11223;49.968;9.062;2022-07-29T11:39:32;3.50;;;3.20;;
22113;SDS011;11223;49.968;9.062;2022-07-29T11:47:30;3.60;;;2.80;;
22113;SDS011;11223;49.968;9.062;2022-07-29T11:49:57;3.60;;;3.30;;
22113;SDS011;11223;49.968;9.062;2022-07-29T11:52:31;6.43;;;3.50;;
22113;SDS011;11223;49.968;9.062;2022-07-29T11:55:03;4.00;;;3.10;;
22113;SDS011;11223;49.968;9.062;2022-07-29T11:57:30;3.10;;;2.90;;
22113;SDS011;11223;49.968;9.062;2022-07-29T11:59:56;3.23;;;3.03;;
22113;SDS011;11223;49.968;9.062;2022-07-29T12:02:23;3.70;;;3.30;;
22113;SDS011;11223;49.968;9.062;2022-07-29T12:07:15;4.77;;;3.20;;
22113;SDS011;11223;49.968;9.062;2022-07-29T12:09:49;5.03;;;3.70;;
22113;SDS011;11223;49.968;9.062;2022-07-29T12:12:16;3.37;;;2.77;;
22113;SDS011;11223;49.968;9.062;2022-07-29T12:14:42;4.53;;;3.57;;
22113;SDS011;11223;49.968;9.062;2022-07-29T12:17:24;3.90;;;3.60;;
22113;SDS011;11223;49.968;9.062;2022-07-29T12:19:51;3.30;;;3.10;;
22113;SDS011;11223;49.968;9.062;2022-07-29T12:22:25;4.27;;;3.70;;
22113;SDS011;11223;49.968;9.062;2022-07-29T12:24:55;3.83;;;3.53;;
22113;SDS011;11223;49.968;9.062;2022-07-29T12:27:25;3.70;;;3.40;;
22113;SDS011;11223;49.968;9.062;2022-07-29T12:29:57;3.60;;;3.30;;
22113;SDS011;11223;49.968;9.062;2022-07-29T12:32:38;3.50;;;3.30;;
22113;SDS011;11223;49.968;9.062;2022-07-29T12:35:12;3.90;;;3.60;;
22113;SDS011;11223;49.968;9.062;2022-07-29T12:37:45;4.13;;;3.73;;
22113;SDS011;11223;49.968;9.062;2022-07-29T12:40:13;3.30;;;3.07;;
22113;SDS011;11223;49.968;9.062;2022-07-29T12:42:42;4.77;;;3.43;;
22113;SDS011;11223;49.968;9.062;2022-07-29T12:45:38;3.60;;;3.40;;
22113;SDS011;11223;49.968;9.062;2022-07-29T12:48:06;5.73;;;3.37;;
22113;SDS011;11223;49.968;9.062;2022-07-29T12:50:54;5.53;;;3.77;;
22113;SDS011;11223;49.968;9.062;2022-07-29T12:53:21;4.70;;;4.00;;
22113;SDS011;11223;49.968;9.062;2022-07-29T12:55:47;3.47;;;3.10;;
22113;SDS011;11223;49.968;9.062;2022-07-29T12:58:33;4.23;;;3.67;;
22113;SDS011;11223;49.968;9.062;2022-07-29T13:03:42;4.77;;;3.80;;
22113;SDS011;11223;49.968;9.062;2022-07-29T13:09:06;5.70;;;3.67;;
22113;SDS011;11223;49.968;9.062;2022-07-29T13:14:03;10.63;;;3.57;;
22113;SDS011;11223;49.968;9.062;2022-07-29T13:16:29;4.43;;;4.00;;
22113;SDS011;11223;49.968;9.062;2022-07-29T13:19:09;5.37;;;4.40;;
22113;SDS011;11223;49.968;9.062;2022-07-29T13:21:36;4.13;;;3.80;;
22113;SDS011;11223;49.968;9.062;2022-07-29T13:24:03;5.43;;;3.80;;
22113;SDS011;11223;49.968;9.062;2022-07-29T13:26:32;3.93;;;3.53;;
22113;SDS011;11223;49.968;9.062;2022-07-29T13:28:57;4.13;;;3.77;;
22113;SDS011;11223;49.968;9.062;2022-07-29T13:31:23;4.53;;;3.20;;
22113;SDS011;11223;49.968;9.062;2022-07-29T13:33:49;3.40;;;3.07;;
22113;SDS011;11223;49.968;9.062;2022-07-29T13:36:15;3.90;;;3.70;;
22113;SDS011;11223;49.968;9.062;2022-07-29T13:38:41;14.37;;;4.50;;
22113;SDS011;11223;49.968;9.062;2022-07-29T13:41:06;5.93;;;4.03;;
22113;SDS011;11223;49.968;9.062;2022-07-29T13:43:32;4.07;;;3.80;;
22113;SDS011;11223;49.968;9.062;2022-07-29T13:45:58;5.70;;;3.53;;
22113;SDS011;11223;49.968;9.062;2022-07-29T13:48:23;4.20;;;3.90;;
22113;SDS011;11223;49.968;9.062;2022-07-29T13:50:49;3.80;;;3.50;;
22113;SDS011;11223;49.968;9.062;2022-07-29T13:53:14;4.40;;;4.00;;
22113;SDS011;11223;49.968;9.062;2022-07-29T13:55:40;6.63;;;3.60;;
22113;SDS011;11223;49.968;9.062;2022-07-29T13:58:05;4.67;;;4.17;;
22113;SDS011;11223;49.968;9.062;2022-07-29T14:00:31;6.03;;;4.05;;
22113;SDS011;11223;49.968;9.062;2022-07-29T14:02:57;3.83;;;3.53;;
22113;SDS011;11223;49.968;9.062;2022-07-29T14:05:22;5.07;;;4.53;;
22113;SDS011;11223;49.968;9.062;2022-07-29T14:07:48;6.60;;;4.33;;
22113;SDS011;11223;49.968;9.062;2022-07-29T14:10:13;9.53;;;4.33;;
22113;SDS011;11223;49.968;9.062;2022-07-29T14:12:39;5.33;;;4.67;;
22113;SDS011;11223;49.968;9.062;2022-07-29T14:15:07;13.50;;;5.10;;
22113;SDS011;11223;49.968;9.062;2022-07-29T14:17:34;10.00;;;6.13;;
22113;SDS011;11223;49.968;9.062;2022-07-29T14:20:00;9.20;;;6.60;;
22113;SDS011;11223;49.968;9.062;2022-07-29T14:22:25;14.07;;;6.77;;
22113;SDS011;11223;49.968;9.062;2022-07-29T14:24:51;7.60;;;6.53;;
22113;SDS011;11223;49.968;9.062;2022-07-29T14:27:17;8.33;;;6.80;;
22113;SDS011;11223;49.968;9.062;2022-07-29T14:29:42;7.47;;;6.70;;
22113;SDS011;11223;49.968;9.062;2022-07-29T14:32:08;6.67;;;6.07;;
22113;SDS011;11223;49.968;9.062;2022-07-29T14:34:39;7.28;;;5.65;;
22113;SDS011;11223;49.968;9.062;2022-07-29T14:37:05;6.77;;;6.17;;
22113;SDS011;11223;49.968;9.062;2022-07-29T14:39:31;7.10;;;6.60;;
22113;SDS011;11223;49.968;9.062;2022-07-29T14:41:57;8.15;;;7.55;;
22113;SDS011;11223;49.968;9.062;2022-07-29T14:44:23;7.05;;;6.47;;
22113;SDS011;11223;49.968;9.062;2022-07-29T14:46:53;8.32;;;7.63;;
22113;SDS011;11223;49.968;9.062;2022-07-29T14:49:19;7.50;;;6.77;;
22113;SDS011;11223;49.968;9.062;2022-07-29T14:51:44;8.13;;;7.50;;
22113;SDS011;11223;49.968;9.062;2022-07-29T14:54:10;7.97;;;6.87;;
22113;SDS011;11223;49.968;9.062;2022-07-29T14:56:36;8.53;;;7.57;;
22113;SDS011;11223;49.968;9.062;2022-07-29T14:59:01;8.47;;;7.47;;
22113;SDS011;11223;49.968;9.062;2022-07-29T15:01:27;10.10;;;9.20;;
22113;SDS011;11223;49.968;9.062;2022-07-29T15:03:52;9.00;;;8.17;;
22113;SDS011;11223;49.968;9.062;2022-07-29T15:06:18;9.50;;;8.60;;
22113;SDS011;11223;49.968;9.062;2022-07-29T15:08:43;9.03;;;8.23;;
22113;SDS011;11223;49.968;9.062;2022-07-29T15:11:09;9.87;;;9.07;;
22113;SDS011;11223;49.968;9.062;2022-07-29T15:13:35;10.83;;;9.93;;
22113;SDS011;11223;49.968;9.062;2022-07-29T15:16:00;10.30;;;9.53;;
22113;SDS011;11223;49.968;9.062;2022-07-29T15:18:26;9.93;;;9.07;;
22113;SDS011;11223;49.968;9.062;2022-07-29T15:20:52;10.80;;;9.60;;
22113;SDS011;11223;49.968;9.062;2022-07-29T15:23:17;8.63;;;8.03;;
22113;SDS011;11223;49.968;9.062;2022-07-29T15:25:43;9.37;;;8.70;;
22113;SDS011;11223;49.968;9.062;2022-07-29T15:28:08;8.70;;;8.00;;
22113;SDS011;11223;49.968;9.062;2022-07-29T15:30:34;9.40;;;8.60;;
22113;SDS011;11223;49.968;9.062;2022-07-29T15:33:05;10.43;;;9.55;;
22113;SDS011;11223;49.968;9.062;2022-07-29T15:35:31;8.75;;;8.02;;
22113;SDS011;11223;49.968;9.062;2022-07-29T15:37:57;9.07;;;8.37;;
22113;SDS011;11223;49.968;9.062;2022-07-29T15:40:23;11.20;;;10.00;;
22113;SDS011;11223;49.968;9.062;2022-07-29T15:42:48;9.73;;;8.93;;
22113;SDS011;11223;49.968;9.062;2022-07-29T15:45:14;9.90;;;9.20;;
22113;SDS011;11223;49.968;9.062;2022-07-29T15:47:39;10.03;;;9.17;;
22113;SDS011;11223;49.968;9.062;2022-07-29T15:50:05;11.03;;;9.73;;
22113;SDS011;11223;49.968;9.062;2022-07-29T15:52:36;11.43;;;10.35;;
22113;SDS011;11223;49.968;9.062;2022-07-29T15:55:02;10.77;;;9.70;;
22113;SDS011;11223;49.968;9.062;2022-07-29T15:57:28;11.85;;;11.05;;
22113;SDS011;11223;49.968;9.062;2022-07-29T15:59:54;12.10;;;11.20;;